Wednesday, February 21, 2018, 8:12 PM EST
Back to Local

KJYO, Leesburg / Godfrey

Location: Leesburg, VA, United States Lat: 39.083
Local Time: 8:12 PM EST ( 1:12 GMT) Lon: -77.567
Time Zone: US/Eastern Elev: 390 ft

Show me the last for .
Show Decoded

2018-02-21 19:35 METAR KJYO 220035Z AUTO 00000KT 10SM -RA OVC060 24/17 A3032 RMK AO2 =
2018-02-21 19:15 METAR KJYO 220015Z AUTO 23006KT 10SM BKN060 BKN075 BKN090 24/17 A3032 RMK AO2 =
2018-02-21 18:55 METAR KJYO 212355Z AUTO 20004KT 10SM SCT090 SCT110 24/17 A3031 RMK AO2 =
2018-02-21 18:35 METAR KJYO 212335Z AUTO 20005KT 10SM SCT110 25/17 A3030 RMK AO2 =
2018-02-21 18:15 METAR KJYO 212315Z AUTO 00000KT 10SM SCT065 SCT075 BKN120 26/17 A3030 RMK AO2 =
2018-02-21 17:55 METAR KJYO 212255Z AUTO 00000KT 10SM BKN065 OVC075 25/17 A3029 RMK AO2 =
2018-02-21 17:35 METAR KJYO 212235Z AUTO 22006G15KT 10SM OVC065 26/17 A3027 RMK AO2 =
2018-02-21 17:15 METAR KJYO 212215Z AUTO 22007KT 10SM BKN065 BKN085 27/17 A3026 RMK AO2 =
2018-02-21 16:55 METAR KJYO 212155Z AUTO 20009G16KT 10SM SCT065 SCT085 27/17 A3025 RMK AO2 =
2018-02-21 16:35 METAR KJYO 212135Z AUTO 19010KT 10SM CLR 27/17 A3024 RMK AO2 =
2018-02-21 16:15 METAR KJYO 212115Z AUTO 22010G16KT 10SM CLR 27/17 A3024 RMK AO2 =
2018-02-21 15:55 METAR KJYO 212055Z AUTO 20008KT 10SM CLR 27/17 A3024 RMK AO2 =
2018-02-21 15:35 METAR KJYO 212035Z AUTO 20012G20KT 10SM SCT120 27/18 A3025 RMK AO2 =
2018-02-21 15:15 METAR KJYO 212015Z AUTO 19015G24KT 10SM CLR 27/18 A3025 RMK AO2 =
2018-02-21 14:55 METAR KJYO 211955Z AUTO 18014G21KT 10SM CLR 27/18 A3026 RMK AO2 =
2018-02-21 14:35 METAR KJYO 211935Z AUTO 19015KT 10SM SCT120 27/18 A3026 RMK AO2 =
2018-02-21 14:15 METAR KJYO 211915Z AUTO 20013G17KT 10SM OVC110 26/18 A3026 RMK AO2 =
2018-02-21 13:55 METAR KJYO 211855Z AUTO 20010KT 10SM BKN110 26/17 A3026 RMK AO2 =
2018-02-21 13:35 METAR KJYO 211835Z AUTO 20013G19KT 10SM SCT110 27/17 A3027 RMK AO2 =
2018-02-21 13:15 METAR KJYO 211815Z AUTO 21010G19KT 10SM CLR 27/17 A3028 RMK AO2 =
2018-02-21 12:55 METAR KJYO 211755Z AUTO 20014KT 10SM CLR 26/17 A3029 RMK AO2 =
2018-02-21 12:35 METAR KJYO 211735Z AUTO 19015G19KT 10SM CLR 26/17 A3030 RMK AO2 =
2018-02-21 12:15 METAR KJYO 211715Z AUTO 18011KT 10SM CLR 25/17 A3030 RMK AO2 =
2018-02-21 11:55 METAR KJYO 211655Z AUTO 21012KT 10SM CLR 25/17 A3031 RMK AO2 =
2018-02-21 11:35 METAR KJYO 211635Z AUTO 18011KT 10SM CLR 24/17 A3032 RMK AO2 =
2018-02-21 11:15 METAR KJYO 211615Z AUTO 19013G17KT 10SM SCT080 23/17 A3033 RMK AO2 =
2018-02-21 10:55 METAR KJYO 211555Z AUTO 22009G19KT 10SM OVC080 22/17 A3033 RMK AO2 =
2018-02-21 10:35 METAR KJYO 211535Z AUTO 23008G14KT 10SM OVC080 21/17 A3034 RMK AO2 =
2018-02-21 10:15 METAR KJYO 211515Z AUTO 20011KT 10SM OVC090 20/16 A3034 RMK AO2 =
2018-02-21 09:55 METAR KJYO 211455Z AUTO 20009KT 10SM OVC090 18/16 A3034 RMK AO2 =
2018-02-21 09:35 METAR KJYO 211435Z AUTO 21010KT 10SM OVC090 18/16 A3035 RMK AO2 =
2018-02-21 09:15 METAR KJYO 211415Z AUTO 21009G15KT 10SM BKN090 17/16 A3035 RMK AO2 =
2018-02-21 08:55 METAR KJYO 211355Z AUTO 20007KT 10SM SCT090 17/16 A3034 RMK AO2 =
2018-02-21 08:35 METAR KJYO 211335Z AUTO 19009KT 10SM OVC090 16/15 A3034 RMK AO2 =
2018-02-21 08:15 METAR KJYO 211315Z AUTO 21007KT 10SM BKN090 16/15 A3034 RMK AO2 =
2018-02-21 07:55 METAR KJYO 211255Z AUTO 20008G14KT 10SM SCT090 16/15 A3033 RMK AO2 =
2018-02-21 07:35 METAR KJYO 211235Z AUTO 20008KT 10SM CLR 15/15 A3033 RMK AO2 =
2018-02-21 07:15 METAR KJYO 211215Z AUTO 21008KT 10SM CLR 15/14 A3033 RMK AO2 =
2018-02-21 06:55 METAR KJYO 211155Z AUTO 20008KT 10SM CLR 15/14 A3032 RMK AO2 =
2018-02-21 06:35 METAR KJYO 211135Z AUTO 21007KT 10SM CLR 15/14 A3032 RMK AO2 =
2018-02-21 06:15 METAR KJYO 211115Z AUTO 21008KT 10SM CLR 15/15 A3032 RMK AO2 =
2018-02-21 05:55 METAR KJYO 211055Z AUTO 21010KT 10SM CLR 15/15 A3032 RMK AO2 =
2018-02-21 05:35 METAR KJYO 211035Z AUTO 21008KT 10SM CLR 15/14 A3032 RMK AO2 =
2018-02-21 05:15 METAR KJYO 211015Z AUTO 21007KT 10SM CLR 15/15 A3031 RMK AO2 =
2018-02-21 04:55 METAR KJYO 210955Z AUTO 21006KT 10SM CLR 15/15 A3031 RMK AO2 =
2018-02-21 04:35 METAR KJYO 210935Z AUTO 21006KT 10SM CLR 15/15 A3031 RMK AO2 =
2018-02-21 04:15 METAR KJYO 210915Z AUTO 22006KT 10SM CLR 16/15 A3031 RMK AO2 =
2018-02-21 03:55 METAR KJYO 210855Z AUTO 21007KT 10SM CLR 16/15 A3031 RMK AO2 =
2018-02-21 03:35 METAR KJYO 210835Z AUTO 21008KT 10SM CLR 16/15 A3031 RMK AO2 =
2018-02-21 03:15 METAR KJYO 210815Z AUTO 20010G15KT 10SM CLR 16/15 A3031 RMK AO2 =
2018-02-21 02:55 METAR KJYO 210755Z AUTO 20009KT 10SM CLR 16/15 A3031 RMK AO2 =
2018-02-21 02:35 METAR KJYO 210735Z AUTO 19005KT 10SM CLR 16/14 A3031 RMK AO2 =
2018-02-21 02:15 METAR KJYO 210715Z AUTO 19006KT 10SM CLR 16/14 A3032 RMK AO2 =
2018-02-21 01:55 METAR KJYO 210655Z AUTO 18006KT 10SM CLR 16/15 A3032 RMK AO2 =
2018-02-21 01:35 METAR KJYO 210635Z AUTO 18006KT 10SM CLR 16/14 A3032 RMK AO2 =
2018-02-21 01:15 METAR KJYO 210615Z AUTO 16003KT 10SM CLR 16/15 A3032 RMK AO2 =
2018-02-21 00:55 METAR KJYO 210555Z AUTO 15003KT 10SM CLR 17/15 A3032 RMK AO2 =
2018-02-21 00:35 METAR KJYO 210535Z AUTO 00000KT 10SM CLR 17/15 A3033 RMK AO2 =
2018-02-21 00:15 METAR KJYO 210515Z AUTO 20005KT 10SM CLR 17/15 A3033 RMK AO2 =
2018-02-20 23:55 METAR KJYO 210455Z AUTO 21006KT 10SM CLR 18/15 A3032 RMK AO2 =
2018-02-20 23:35 METAR KJYO 210435Z AUTO 00000KT 10SM CLR 18/15 A3032 RMK AO2 =
2018-02-20 23:15 METAR KJYO 210415Z AUTO 21005KT 10SM CLR 18/15 A3032 RMK AO2 =
2018-02-20 22:55 METAR KJYO 210355Z AUTO 20006KT 10SM CLR 18/15 A3032 RMK AO2 =
2018-02-20 22:35 METAR KJYO 210335Z AUTO 19008KT 10SM CLR 18/15 A3032 RMK AO2 =
2018-02-20 22:15 METAR KJYO 210315Z AUTO 19009KT 10SM CLR 19/15 A3032 RMK AO2 =
2018-02-20 21:55 METAR KJYO 210255Z AUTO 20007G14KT 10SM CLR 19/15 A3032 RMK AO2 =
2018-02-20 21:35 METAR KJYO 210235Z AUTO 20009G16KT 10SM CLR 19/15 A3032 RMK AO2 =
2018-02-20 21:15 METAR KJYO 210215Z AUTO 20012G16KT 10SM CLR 20/15 A3032 RMK AO2 =
2018-02-20 20:55 METAR KJYO 210155Z AUTO 21012G17KT 10SM CLR 20/15 A3032 RMK AO2 =
2018-02-20 20:35 METAR KJYO 210135Z AUTO 20011KT 10SM CLR 20/14 A3032 RMK AO2 =
2018-02-20 20:15 METAR KJYO 210115Z AUTO 20011G16KT 10SM CLR 21/14 A3031 RMK AO2 =

Support USWX by starting your Amazon purchase here.